Terminal Aerodrome Forecast
Issued by NWS

Home | Current Version | Previous Version | Text Only | Print | Product List | Glossary On
Versions: 1 2 3 4 5 6 7 8 9 10 11 12 13 14 15 16
000
FTUS44 KBMX 262000 AAA
TAFEET
TAF AMD
KEET 262002Z 2620/2718 32012G18KT P6SM SCT030
     FM262300 30008KT P6SM SKC
     FM270300 30004KT P6SM BKN070
     FM270900 22002KT P6SM BKN040=

USA.gov is the U.S. government's official web portal to all federal, state and local government web resources and services.